Sheyenne, North Dakota
Current Conditions -  °F | °C
As of 7:15 PM on Sunday 23 Nov 2014 (Local Time) from KDVL Reporting Station
Overcast Overcast  
Wind Chill: -2°   Ceiling: 1800
Heat Index: 16°   Visibility: 3mi
Dew Point:   Wind: 22mph
Humidity: 58%   Direction: 330°NNW
Pressure: 29.6"   Gusts: 29mph
Location:  47.83°N, 99.12°W
Report Text: KDVL 240115Z AUTO 33019G25KT 3SM BKN018 OVC026 M09/M16 A2960 RMK AO1
Loading
Personal Weather Stations






























Interactive Weather Map New forecast layout! Learn more

10-Day Weather Forecast

Advertisements
Track Severe Weather on mobile